Time;durP1;ratioP1;P1;durP2;ratioP2;P2;SDS_P1;SDS_P2;PMS_P1;PMS_P2;Temp;Humidity;BMP_temperature;BMP_pressure;BME280_temperature;BME280_humidity;BME280_pressure;Samples;Min_cycle;Max_cycle;Signal;HPM_P1;HPM_P2
2021/04/02 00:01:49;;;;;;;13.43;8.83;;;9.10;52.50;;;;;;4359364;32;20067;-37
2021/04/02 00:04:15;;;;;;;13.27;8.77;;;9.00;52.50;;;;;;4345570;32;20152;-37
2021/04/02 00:06:42;;;;;;;11.10;9.00;;;9.00;52.40;;;;;;4341648;33;20079;-36
2021/04/02 00:09:11;;;;;;;13.57;8.47;;;9.00;52.40;;;;;;4329672;33;20097;-37
2021/04/02 00:11:38;;;;;;;11.53;8.83;;;9.00;52.40;;;;;;4329299;33;20595;-36
2021/04/02 00:14:04;;;;;;;13.43;9.47;;;9.00;52.30;;;;;;4342076;33;20220;-36
2021/04/02 00:16:31;;;;;;;12.53;9.20;;;9.00;52.40;;;;;;4331996;32;20146;-36
2021/04/02 00:18:57;;;;;;;12.73;9.33;;;9.00;52.40;;;;;;4356244;32;20094;-37
2021/04/02 00:21:24;;;;;;;10.80;8.77;;;8.90;52.40;;;;;;4356099;32;20073;-37
2021/04/02 00:23:50;;;;;;;16.87;8.73;;;8.90;52.50;;;;;;4356470;32;20070;-36
2021/04/02 00:26:18;;;;;;;11.80;8.13;;;8.90;52.50;;;;;;4356385;32;20560;-36
2021/04/02 00:28:52;;;;;;;9.33;7.73;;;8.80;52.50;;;;;;4356676;32;20071;-38
2021/04/02 00:31:19;;;;;;;13.27;7.87;;;8.80;52.40;;;;;;4356176;32;20073;-37
2021/04/02 00:33:45;;;;;;;10.00;6.83;;;8.90;52.40;;;;;;4356390;32;20179;-37
2021/04/02 00:36:12;;;;;;;10.03;7.47;;;8.90;53.00;;;;;;4345669;32;20140;-38
2021/04/02 00:38:38;;;;;;;9.47;5.93;;;8.90;52.30;;;;;;4329089;33;20486;-37
2021/04/02 00:41:07;;;;;;;10.17;7.17;;;8.90;52.10;;;;;;4329265;33;20075;-36
2021/04/02 00:43:49;;;;;;;9.73;8.00;;;8.90;51.90;;;;;;4345519;32;20073;-38
2021/04/02 00:46:18;;;;;;;10.13;6.03;;;9.00;51.90;;;;;;4344023;32;20078;-36
2021/04/02 00:48:45;;;;;;;13.00;8.40;;;9.00;51.80;;;;;;4356581;32;20175;-36
2021/04/02 00:51:32;;;;;;;11.07;7.50;;;9.00;51.60;;;;;;4325899;33;20150;-37
2021/04/02 00:53:58;;;;;;;11.80;8.50;;;9.00;51.60;;;;;;4326685;33;20082;-38
2021/04/02 00:56:25;;;;;;;9.80;5.03;;;9.00;51.40;;;;;;4314298;33;20097;-37
2021/04/02 00:58:51;;;;;;;8.70;6.53;;;9.00;51.40;;;;;;4326201;33;20231;-38
2021/04/02 01:01:17;;;;;;;9.30;7.90;;;9.00;51.30;;;;;;4326300;33;20083;-37
2021/04/02 01:03:45;;;;;;;10.50;7.23;;;9.00;51.30;;;;;;4314312;33;20524;-36
2021/04/02 01:06:19;;;;;;;12.00;8.93;;;9.00;51.20;;;;;;4299246;33;20606;-38
2021/04/02 01:08:45;;;;;;;12.40;8.17;;;9.00;51.10;;;;;;4311956;33;20095;-35
2021/04/02 01:11:21;;;;;;;8.38;5.05;;;8.90;51.00;;;;;;4311395;33;20075;-37
2021/04/02 01:13:54;;;;;;;9.83;5.90;;;8.90;51.10;;;;;;4300787;33;20102;-36
2021/04/02 01:16:22;;;;;;;11.00;7.00;;;8.90;51.00;;;;;;4312927;33;20153;-35
2021/04/02 01:19:29;;;;;;;8.93;7.07;;;9.00;51.00;;;;;;4312466;33;20079;-35
2021/04/02 01:22:15;;;;;;;11.37;6.47;;;9.00;50.80;;;;;;4301946;33;20074;-37
2021/04/02 01:25:09;;;;;;;9.10;5.93;;;9.00;50.70;;;;;;4300562;33;20175;-35
2021/04/02 01:28:33;;;;;;;8.53;5.60;;;9.00;50.80;;;;;;4303508;33;20067;-37
2021/04/02 01:30:59;;;;;;;9.68;4.97;;;8.90;50.90;;;;;;4335006;32;20074;-36
2021/04/02 01:33:26;;;;;;;8.47;6.23;;;8.90;50.70;;;;;;4328524;33;20636;-36
2021/04/02 01:35:54;;;;;;;11.50;5.67;;;8.90;50.70;;;;;;4321668;33;20071;-36
2021/04/02 01:38:33;;;;;;;5.63;4.40;;;8.90;50.90;;;;;;4342674;32;20090;-38
2021/04/02 01:41:08;;;;;;;8.70;6.07;;;8.90;51.00;;;;;;4343394;32;20171;-36
2021/04/02 01:43:48;;;;;;;;;;;8.90;51.00;;;;;;4356092;32;20062;-36
2021/04/02 01:46:15;;;;;;;11.67;6.90;;;8.90;50.90;;;;;;4355650;32;19976;-36
2021/04/02 01:48:44;;;;;;;7.33;3.60;;;8.90;50.80;;;;;;4343169;32;20063;-36
2021/04/02 01:51:13;;;;;;;10.67;6.67;;;8.90;50.90;;;;;;4331215;32;20082;-37
2021/04/02 01:53:43;;;;;;;13.77;8.60;;;8.90;50.90;;;;;;4355895;32;20071;-36
2021/04/02 01:56:10;;;;;;;11.20;7.00;;;8.90;51.00;;;;;;4355921;32;20078;-36
2021/04/02 01:58:41;;;;;;;11.47;6.40;;;8.80;51.10;;;;;;4330969;32;20153;-35
2021/04/02 02:01:08;;;;;;;10.23;6.80;;;8.80;51.20;;;;;;4355675;32;20443;-35
2021/04/02 02:03:35;;;;;;;10.37;8.23;;;8.80;51.00;;;;;;4343355;32;20087;-36
2021/04/02 02:06:03;;;;;;;9.97;6.70;;;8.80;51.00;;;;;;4355856;32;20078;-37
2021/04/02 02:08:30;;;;;;;8.10;5.63;;;8.90;51.00;;;;;;4356290;32;20510;-36
2021/04/02 02:11:08;;;;;;;8.80;5.07;;;8.90;50.90;;;;;;4356075;32;20517;-35
2021/04/02 02:13:39;;;;;;;7.90;6.37;;;8.80;50.90;;;;;;4357865;32;20301;-37
2021/04/02 02:16:06;;;;;;;12.77;7.13;;;8.90;50.90;;;;;;4356397;32;20074;-37
2021/04/02 02:18:33;;;;;;;9.00;6.47;;;8.80;50.90;;;;;;4356150;32;20602;-37
2021/04/02 02:20:59;;;;;;;10.53;6.77;;;8.80;51.00;;;;;;4313342;33;20071;-36
2021/04/02 02:23:25;;;;;;;11.20;5.80;;;8.80;51.00;;;;;;4313448;33;20463;-35
2021/04/02 02:25:52;;;;;;;10.20;6.63;;;8.80;51.00;;;;;;4313327;33;20551;-36
2021/04/02 02:28:18;;;;;;;13.97;6.47;;;8.80;51.00;;;;;;4313727;33;20110;-36
2021/04/02 02:30:45;;;;;;;10.70;7.30;;;8.80;51.00;;;;;;4313302;33;20126;-35
2021/04/02 02:33:12;;;;;;;12.37;7.73;;;8.80;51.00;;;;;;4325831;33;20106;-36
2021/04/02 02:35:40;;;;;;;12.27;7.23;;;8.80;51.00;;;;;;4318255;33;20102;-36
2021/04/02 02:38:08;;;;;;;10.43;7.50;;;8.80;51.10;;;;;;4311086;33;20084;-37
2021/04/02 02:40:36;;;;;;;14.53;7.20;;;8.80;51.10;;;;;;4310738;33;20686;-37
2021/04/02 02:43:02;;;;;;;10.07;5.87;;;8.90;51.00;;;;;;4312682;33;20070;-37
2021/04/02 02:45:29;;;;;;;8.03;4.90;;;8.90;51.00;;;;;;4313245;33;20067;-37
2021/04/02 02:47:56;;;;;;;11.07;6.43;;;8.90;50.90;;;;;;4313126;33;20126;-35
2021/04/02 02:50:33;;;;;;;12.02;7.22;;;9.00;50.80;;;;;;4313559;33;20147;-37
2021/04/02 02:53:00;;;;;;;10.40;6.90;;;8.90;50.80;;;;;;4313289;33;20544;-37
2021/04/02 02:55:30;;;;;;;12.57;6.80;;;9.00;50.80;;;;;;4289411;33;20475;-37
2021/04/02 02:57:56;;;;;;;10.83;8.20;;;9.00;50.80;;;;;;4322915;33;20466;-36
2021/04/02 03:00:29;;;;;;;10.87;6.43;;;9.00;50.80;;;;;;4343490;33;20062;-37
2021/04/02 03:02:59;;;;;;;15.67;6.63;;;8.90;50.80;;;;;;4345171;32;20712;-37
2021/04/02 03:05:27;;;;;;;9.93;6.47;;;9.10;50.80;;;;;;4343605;33;20086;-38
2021/04/02 03:07:56;;;;;;;11.20;5.87;;;9.10;50.70;;;;;;4343739;33;20161;-37
2021/04/02 03:10:23;;;;;;;7.37;4.17;;;9.20;50.60;;;;;;4343361;33;20070;-36
2021/04/02 03:12:50;;;;;;;10.53;6.43;;;9.30;50.50;;;;;;4319073;33;20067;-37
2021/04/02 03:15:18;;;;;;;9.10;5.93;;;9.30;50.30;;;;;;4331549;33;20074;-37
2021/04/02 03:17:44;;;;;;;9.33;5.57;;;9.30;50.30;;;;;;4343521;33;20456;-37
2021/04/02 03:20:11;;;;;;;10.03;6.83;;;9.30;50.20;;;;;;4319290;33;20074;-37
2021/04/02 03:22:38;;;;;;;8.60;5.00;;;9.40;50.00;;;;;;4343559;33;20172;-36
2021/04/02 03:25:22;;;;;;;12.87;6.70;;;9.40;50.00;;;;;;4331271;33;20090;-37
2021/04/02 03:27:49;;;;;;;12.17;6.60;;;9.40;50.00;;;;;;4343206;33;20130;-36
2021/04/02 03:30:17;;;;;;;13.90;7.53;;;9.40;49.90;;;;;;4343489;33;20161;-37
2021/04/02 03:32:51;;;;;;;13.93;6.87;;;9.40;50.00;;;;;;4343663;33;20142;-37
2021/04/02 03:35:18;;;;;;;13.80;7.28;;;9.50;50.10;;;;;;4349804;32;20082;-37
2021/04/02 03:37:47;;;;;;;13.70;6.63;;;9.60;49.80;;;;;;4333752;32;20576;-37
2021/04/02 03:40:16;;;;;;;14.33;6.03;;;9.60;49.80;;;;;;4345976;32;20062;-37
2021/04/02 03:42:45;;;;;;;10.10;5.33;;;9.60;49.70;;;;;;4359603;32;20660;-36
2021/04/02 03:45:13;;;;;;;10.80;6.03;;;9.60;49.60;;;;;;4358049;32;20178;-40
2021/04/02 03:47:39;;;;;;;11.95;5.85;;;9.70;49.50;;;;;;4357973;32;20529;-36
2021/04/02 03:50:12;;;;;;;7.30;3.72;;;9.80;49.60;;;;;;4345816;32;20086;-37
2021/04/02 03:53:02;;;;;;;16.20;6.18;;;9.80;49.50;;;;;;4357883;32;20128;-38
2021/04/02 03:55:29;;;;;;;11.93;5.72;;;9.90;49.40;;;;;;4357298;32;20082;-37
2021/04/02 03:57:55;;;;;;;9.63;5.60;;;9.90;48.90;;;;;;4357846;32;20256;-37
2021/04/02 04:00:30;;;;;;;15.80;7.10;;;9.90;48.90;;;;;;4333338;32;20086;-38
2021/04/02 04:02:56;;;;;;;12.40;6.95;;;9.90;48.90;;;;;;4359294;32;20240;-37
2021/04/02 04:05:23;;;;;;;10.95;6.05;;;9.90;48.90;;;;;;4357908;32;20051;-38
2021/04/02 04:07:49;;;;;;;20.95;6.72;;;10.00;48.90;;;;;;4333279;32;20547;-38
2021/04/02 04:10:17;;;;;;;11.52;5.75;;;10.00;48.80;;;;;;4345491;32;20075;-38
2021/04/02 04:12:46;;;;;;;16.67;5.87;;;10.10;48.70;;;;;;4359342;32;20184;-38
2021/04/02 04:15:13;;;;;;;19.15;5.68;;;10.10;48.70;;;;;;4357768;32;20510;-37
2021/04/02 04:17:41;;;;;;;14.45;7.20;;;10.20;48.70;;;;;;4357790;32;20066;-37
2021/04/02 04:20:09;;;;;;;10.27;7.32;;;10.20;48.50;;;;;;4359239;32;20082;-37
2021/04/02 04:22:37;;;;;;;9.88;5.65;;;10.30;48.20;;;;;;4345388;32;20180;-39
2021/04/02 04:25:04;;;;;;;13.62;6.90;;;10.30;48.20;;;;;;4345529;32;20141;-39
2021/04/02 04:27:31;;;;;;;17.35;6.00;;;10.40;48.30;;;;;;4333001;32;20062;-36
2021/04/02 04:29:58;;;;;;;17.77;6.47;;;10.40;48.30;;;;;;4329305;33;20083;-38
2021/04/02 04:32:24;;;;;;;11.60;6.22;;;10.50;48.00;;;;;;4317102;33;20070;-38
2021/04/02 04:34:51;;;;;;;14.05;6.62;;;10.60;47.40;;;;;;4327108;33;20093;-38
2021/04/02 04:37:19;;;;;;;23.65;7.68;;;10.70;47.40;;;;;;4327048;33;20148;-37
2021/04/02 04:39:47;;;;;;;12.70;7.50;;;10.80;47.30;;;;;;4326865;33;20070;-38
2021/04/02 04:42:15;;;;;;;12.93;6.82;;;10.90;46.90;;;;;;4314667;33;20070;-38
2021/04/02 04:44:43;;;;;;;18.95;6.45;;;11.00;47.00;;;;;;4314608;33;20079;-38
2021/04/02 04:47:09;;;;;;;11.40;5.18;;;11.10;47.10;;;;;;4314452;33;20063;-37
2021/04/02 04:49:35;;;;;;;18.12;6.57;;;11.30;46.70;;;;;;4326609;33;20628;-39
2021/04/02 04:52:02;;;;;;;10.55;5.78;;;11.50;46.50;;;;;;4314501;33;20116;-40
2021/04/02 04:54:29;;;;;;;19.02;5.82;;;11.80;46.50;;;;;;4314483;33;20067;-37
2021/04/02 04:56:56;;;;;;;23.05;7.43;;;12.00;46.30;;;;;;4314544;33;20082;-37
2021/04/02 04:59:22;;;;;;;11.38;5.75;;;12.30;45.90;;;;;;4314390;33;20115;-37
2021/04/02 05:01:51;;;;;;;8.50;5.53;;;12.60;45.40;;;;;;4327646;33;20059;-38
2021/04/02 05:04:17;;;;;;;23.02;6.82;;;12.90;44.90;;;;;;4341891;33;20063;-38
2021/04/02 05:06:43;;;;;;;10.00;5.82;;;13.20;44.30;;;;;;4329652;33;20191;-38
2021/04/02 05:09:10;;;;;;;14.68;6.75;;;13.40;43.50;;;;;;4329681;33;20129;-38
2021/04/02 05:11:38;;;;;;;14.13;6.55;;;13.60;42.70;;;;;;4329897;33;20506;-37
2021/04/02 05:14:05;;;;;;;23.12;7.87;;;13.70;41.30;;;;;;4342008;33;20642;-38
2021/04/02 05:16:32;;;;;;;15.07;5.87;;;13.70;41.10;;;;;;4329462;33;20066;-36
2021/04/02 05:18:59;;;;;;;7.62;4.82;;;13.60;41.30;;;;;;4329996;33;20067;-36
2021/04/02 05:21:25;;;;;;;10.38;5.57;;;13.60;41.50;;;;;;4343558;33;20081;-36
2021/04/02 05:23:55;;;;;;;13.05;7.30;;;13.50;41.30;;;;;;4343577;33;20067;-38
2021/04/02 05:26:21;;;;;;;37.75;6.50;;;13.60;41.20;;;;;;4343461;33;20146;-37
2021/04/02 05:28:49;;;;;;;15.40;6.18;;;13.70;41.50;;;;;;4341675;33;20067;-38
2021/04/02 05:31:15;;;;;;;13.13;6.75;;;13.80;41.20;;;;;;4343455;33;20087;-38
2021/04/02 05:33:42;;;;;;;21.25;6.57;;;13.80;40.60;;;;;;4343136;33;20618;-38
2021/04/02 05:36:09;;;;;;;28.60;7.90;;;13.80;40.70;;;;;;4351619;32;20112;-38
2021/04/02 05:38:35;;;;;;;17.48;5.32;;;13.90;41.80;;;;;;4358273;32;20051;-39
2021/04/02 05:41:13;;;;;;;38.35;8.25;;;14.00;40.80;;;;;;4358511;32;20067;-37
2021/04/02 05:43:51;;;;;;;21.25;6.53;;;14.00;39.60;;;;;;4358673;32;20070;-38
2021/04/02 05:46:18;;;;;;;41.17;8.27;;;14.00;40.10;;;;;;4356967;32;20055;-38
2021/04/02 05:48:45;;;;;;;22.85;6.65;;;13.90;40.50;;;;;;4356501;32;20066;-39
2021/04/02 05:51:12;;;;;;;14.15;6.40;;;14.00;39.90;;;;;;4356166;32;20070;-38
2021/04/02 05:53:39;;;;;;;35.28;7.50;;;14.00;40.00;;;;;;4356699;32;20085;-39
2021/04/02 05:56:05;;;;;;;57.47;9.65;;;14.00;40.30;;;;;;4356359;32;20464;-37
2021/04/02 05:58:32;;;;;;;41.17;7.70;;;14.00;40.00;;;;;;4356528;32;20055;-37
2021/04/02 06:00:59;;;;;;;46.63;8.88;;;13.90;40.10;;;;;;4356665;32;20057;-37
2021/04/02 06:03:26;;;;;;;16.67;6.62;;;13.90;40.50;;;;;;4356717;32;20427;-38
2021/04/02 06:05:52;;;;;;;26.20;7.03;;;14.00;40.20;;;;;;4357863;32;20082;-37
2021/04/02 06:08:19;;;;;;;22.62;7.28;;;14.00;40.30;;;;;;4357750;32;20100;-39
2021/04/02 06:10:45;;;;;;;17.20;6.30;;;14.10;40.40;;;;;;4356302;32;20066;-37
2021/04/02 06:13:12;;;;;;;18.33;7.75;;;14.10;40.10;;;;;;4356372;32;20054;-39
2021/04/02 06:15:38;;;;;;;9.77;5.57;;;14.10;39.90;;;;;;4358107;32;20185;-39
2021/04/02 06:18:10;;;;;;;23.60;7.70;;;14.10;39.80;;;;;;4358052;32;20059;-38
2021/04/02 06:20:43;;;;;;;25.62;6.37;;;14.10;39.80;;;;;;4359287;32;20528;-38
2021/04/02 06:23:14;;;;;;;19.15;6.40;;;14.00;39.90;;;;;;4360828;32;20066;-37
2021/04/02 06:25:48;;;;;;;23.02;6.32;;;14.00;39.80;;;;;;4360636;32;20100;-38
2021/04/02 06:28:23;;;;;;;27.02;6.72;;;13.90;40.00;;;;;;4359474;32;20062;-37
2021/04/02 06:31:14;;;;;;;16.77;5.68;;;13.90;40.40;;;;;;4360842;32;20071;-38
2021/04/02 06:33:52;;;;;;;16.15;5.03;;;13.80;40.00;;;;;;4361001;32;20082;-38
2021/04/02 06:36:21;;;;;;;36.20;7.40;;;13.90;40.30;;;;;;4350353;32;20097;-37
2021/04/02 06:38:54;;;;;;;20.92;6.72;;;13.80;40.00;;;;;;4347308;33;20071;-36
2021/04/02 06:41:20;;;;;;;27.37;5.50;;;13.80;40.10;;;;;;4346937;33;20145;-37
2021/04/02 06:43:52;;;;;;;18.87;4.18;;;13.80;40.40;;;;;;4346570;33;20608;-37
2021/04/02 06:46:27;;;;;;;15.60;3.67;;;13.90;40.70;;;;;;4347023;33;20074;-37
2021/04/02 06:49:07;;;;;;;13.43;6.30;;;14.10;40.20;;;;;;4346510;33;20075;-37
2021/04/02 06:51:38;;;;;;;28.52;6.47;;;14.20;39.40;;;;;;4346701;33;20067;-37
2021/04/02 06:54:06;;;;;;;5.35;3.70;;;14.30;39.30;;;;;;4345424;33;20445;-37
2021/04/02 06:56:34;;;;;;;7.97;4.57;;;14.30;38.90;;;;;;4345933;33;20070;-37
2021/04/02 06:59:01;;;;;;;8.05;4.35;;;14.40;38.80;;;;;;4345727;33;20058;-36
2021/04/02 07:01:29;;;;;;;41.08;7.15;;;14.50;38.70;;;;;;4344276;33;20557;-37
2021/04/02 07:03:55;;;;;;;18.00;5.93;;;14.60;38.90;;;;;;4343901;33;20073;-37
2021/04/02 07:06:22;;;;;;;8.43;3.92;;;14.60;38.30;;;;;;4331814;33;20055;-36
2021/04/02 07:08:48;;;;;;;14.05;4.62;;;14.70;38.20;;;;;;4343943;33;20557;-37
2021/04/02 07:11:15;;;;;;;8.88;4.32;;;14.70;38.10;;;;;;4343993;33;20058;-39
2021/04/02 07:13:53;;;;;;;19.75;5.00;;;14.70;37.80;;;;;;4331525;33;20063;-39
2021/04/02 07:16:22;;;;;;;12.90;3.50;;;14.70;38.10;;;;;;4345543;33;20436;-37
2021/04/02 07:18:49;;;;;;;20.67;5.55;;;14.80;38.20;;;;;;4345056;33;20469;-37
2021/04/02 07:21:19;;;;;;;15.82;4.28;;;14.90;38.20;;;;;;4345059;33;20114;-38
2021/04/02 07:23:45;;;;;;;16.17;4.93;;;14.90;37.50;;;;;;4344816;33;20055;-38
2021/04/02 07:26:12;;;;;;;13.70;4.55;;;14.90;37.90;;;;;;4345241;33;20065;-37
2021/04/02 07:28:44;;;;;;;15.45;3.70;;;14.90;37.90;;;;;;4345050;32;20149;-37
2021/04/02 07:31:11;;;;;;;11.98;4.10;;;14.80;37.90;;;;;;4344735;33;20098;-40
2021/04/02 07:33:39;;;;;;;41.13;6.50;;;14.90;38.00;;;;;;4343574;33;20140;-36
2021/04/02 07:36:06;;;;;;;9.05;2.78;;;14.90;38.20;;;;;;4343539;33;20151;-37
2021/04/02 07:38:36;;;;;;;13.00;4.03;;;15.10;37.90;;;;;;4344824;32;20065;-37
2021/04/02 07:41:11;;;;;;;25.35;5.12;;;15.10;37.20;;;;;;4344758;32;20617;-37
2021/04/02 07:43:54;;;;;;;12.60;3.97;;;15.10;37.50;;;;;;4343364;33;20069;-38
2021/04/02 07:46:27;;;;;;;14.23;4.45;;;15.00;37.70;;;;;;4344984;32;20528;-37
2021/04/02 07:49:11;;;;;;;12.15;2.95;;;15.10;37.50;;;;;;4344805;33;20176;-38
2021/04/02 07:51:46;;;;;;;22.20;4.00;;;15.10;37.40;;;;;;4344393;32;20169;-37
2021/04/02 07:54:23;;;;;;;18.83;3.40;;;15.10;37.30;;;;;;4344532;32;20664;-37
2021/04/02 07:56:56;;;;;;;5.07;2.15;;;15.10;37.30;;;;;;4345039;32;20185;-37
2021/04/02 07:59:47;;;;;;;24.20;4.32;;;15.10;37.00;;;;;;4331190;33;20202;-37
2021/04/02 08:02:28;;;;;;;21.45;3.40;;;15.00;37.10;;;;;;4337500;32;20065;-38
2021/04/02 08:04:57;;;;;;;52.47;6.40;;;15.10;37.50;;;;;;4344739;32;20113;-37
2021/04/02 08:07:39;;;;;;;14.15;3.12;;;15.10;37.30;;;;;;4329020;33;20595;-37
2021/04/02 08:10:14;;;;;;;8.75;2.05;;;15.20;37.40;;;;;;4300457;33;20072;-37
2021/04/02 08:12:41;;;;;;;26.80;3.20;;;15.50;37.50;;;;;;4312088;33;20079;-38
2021/04/02 08:15:12;;;;;;;16.35;3.55;;;15.70;36.80;;;;;;4312234;33;20156;-37
2021/04/02 08:17:39;;;;;;;24.55;3.05;;;15.90;35.70;;;;;;4312308;33;20110;-37
2021/04/02 08:20:10;;;;;;;9.93;2.42;;;16.00;36.20;;;;;;4300199;33;20105;-37
2021/04/02 08:22:37;;;;;;;11.60;3.28;;;16.20;35.60;;;;;;4312530;33;20666;-39
2021/04/02 08:25:14;;;;;;;36.03;4.10;;;16.40;34.90;;;;;;4300401;33;20075;-39
2021/04/02 08:27:42;;;;;;;11.30;2.33;;;16.60;34.70;;;;;;4312299;33;20145;-39
2021/04/02 08:30:13;;;;;;;28.05;3.47;;;16.70;34.10;;;;;;4311920;33;20152;-39
2021/04/02 08:32:49;;;;;;;27.17;3.67;;;16.90;34.20;;;;;;4300892;33;20074;-39
2021/04/02 08:35:15;;;;;;;8.65;2.03;;;17.00;33.90;;;;;;4312152;33;20063;-40
2021/04/02 08:38:03;;;;;;;14.70;2.62;;;17.20;33.90;;;;;;4312006;33;20169;-40
2021/04/02 08:40:31;;;;;;;20.75;2.70;;;17.60;33.10;;;;;;4318951;33;20074;-41
2021/04/02 08:43:09;;;;;;;13.32;2.97;;;17.90;33.10;;;;;;4341792;33;20130;-41
2021/04/02 08:45:37;;;;;;;8.10;2.67;;;18.20;31.80;;;;;;4343099;33;20512;-42
2021/04/02 08:48:05;;;;;;;15.27;3.58;;;18.20;31.40;;;;;;4326707;33;20142;-40
2021/04/02 08:50:31;;;;;;;40.38;4.35;;;18.30;31.90;;;;;;4326574;33;20114;-41
2021/04/02 08:53:06;;;;;;;11.90;2.47;;;18.50;31.80;;;;;;4314603;33;20063;-40
2021/04/02 08:55:32;;;;;;;13.07;2.30;;;18.60;30.70;;;;;;4326698;33;20067;-42
2021/04/02 08:57:59;;;;;;;53.25;6.50;;;18.60;30.70;;;;;;4314021;33;20281;-41
2021/04/02 09:00:25;;;;;;;55.65;6.25;;;18.60;31.30;;;;;;4314225;33;20063;-40
2021/04/02 09:02:52;;;;;;;20.58;2.85;;;18.60;31.40;;;;;;4314712;33;20075;-41
2021/04/02 09:05:18;;;;;;;15.65;3.40;;;18.70;31.00;;;;;;4326061;33;20134;-41
2021/04/02 09:07:45;;;;;;;24.12;3.50;;;18.80;30.60;;;;;;4314423;33;20063;-40
2021/04/02 09:10:18;;;;;;;16.83;2.60;;;18.80;30.40;;;;;;4314509;33;20093;-40
2021/04/02 09:12:49;;;;;;;10.23;1.73;;;18.70;30.50;;;;;;4326143;33;20087;-39
2021/04/02 09:15:29;;;;;;;13.57;2.42;;;18.60;30.20;;;;;;4326250;33;20056;-41
2021/04/02 09:18:18;;;;;;;16.65;3.22;;;18.40;30.30;;;;;;4326108;33;20147;-41
2021/04/02 09:20:45;;;;;;;44.03;5.72;;;18.10;30.70;;;;;;4326195;33;20139;-41
2021/04/02 09:23:12;;;;;;;20.60;2.70;;;18.00;31.20;;;;;;4313738;33;20149;-41
2021/04/02 09:25:49;;;;;;;20.58;2.58;;;18.00;31.20;;;;;;4335516;33;20083;-38
2021/04/02 09:28:20;;;;;;;10.57;1.87;;;18.00;31.10;;;;;;4343239;32;20089;-40
2021/04/02 09:30:47;;;;;;;18.30;3.70;;;18.10;30.30;;;;;;4342028;33;20077;-41
2021/04/02 09:33:19;;;;;;;29.58;3.35;;;18.10;30.70;;;;;;4343083;32;20451;-40
2021/04/02 09:35:46;;;;;;;20.90;3.78;;;18.40;30.80;;;;;;4341758;33;20507;-42
2021/04/02 09:38:13;;;;;;;21.83;2.53;;;18.50;30.30;;;;;;4343204;32;20530;-40
2021/04/02 09:40:45;;;;;;;33.78;4.07;;;18.60;30.00;;;;;;4329372;33;20065;-39
2021/04/02 09:43:12;;;;;;;45.40;5.45;;;18.70;29.70;;;;;;4343428;32;20530;-42
2021/04/02 09:45:39;;;;;;;42.33;4.22;;;18.80;29.60;;;;;;4343247;32;20151;-40
2021/04/02 09:48:21;;;;;;;29.10;2.28;;;18.90;29.50;;;;;;4343049;32;20074;-39
2021/04/02 09:50:48;;;;;;;36.75;4.28;;;19.00;29.30;;;;;;4343276;32;20168;-40
2021/04/02 09:53:15;;;;;;;28.38;1.80;;;19.30;29.10;;;;;;4344949;32;20535;-41
2021/04/02 09:55:41;;;;;;;34.08;3.42;;;19.60;28.00;;;;;;4346062;32;20523;-39
2021/04/02 09:58:08;;;;;;;29.15;3.78;;;19.80;28.00;;;;;;4344629;33;20098;-40
2021/04/02 10:00:34;;;;;;;11.75;2.25;;;19.90;27.30;;;;;;4344662;33;20083;-41
2021/04/02 10:03:01;;;;;;;17.92;1.92;;;19.80;27.00;;;;;;4344521;33;20191;-40
2021/04/02 10:05:27;;;;;;;11.12;1.23;;;19.70;26.90;;;;;;4344554;33;20158;-41
2021/04/02 10:07:54;;;;;;;41.63;3.47;;;19.50;26.70;;;;;;4346002;33;20519;-37
2021/04/02 10:10:20;;;;;;;51.30;4.90;;;19.30;26.90;;;;;;4346126;32;20058;-39
2021/04/02 10:12:47;;;;;;;22.05;2.42;;;19.10;27.50;;;;;;4344599;33;20071;-39
2021/04/02 10:15:15;;;;;;;16.98;1.50;;;19.00;27.50;;;;;;4345877;32;20075;-40
2021/04/02 10:17:41;;;;;;;9.57;1.23;;;18.90;27.80;;;;;;4344594;33;20081;-37
2021/04/02 10:20:09;;;;;;;18.75;2.90;;;19.10;27.70;;;;;;4345990;32;20071;-38
2021/04/02 10:22:36;;;;;;;41.37;3.60;;;19.10;27.50;;;;;;4332090;33;20086;-39
2021/04/02 10:25:02;;;;;;;19.23;1.85;;;19.10;27.70;;;;;;4345786;32;20106;-38
2021/04/02 10:27:29;;;;;;;28.67;2.37;;;19.30;27.90;;;;;;4345818;32;20102;-40
2021/04/02 10:29:55;;;;;;;27.80;2.30;;;19.50;27.70;;;;;;4345724;32;20470;-42
2021/04/02 10:32:22;;;;;;;21.25;1.25;;;19.50;27.50;;;;;;4345446;32;20475;-38
2021/04/02 10:34:48;;;;;;;4.57;1.00;;;19.50;27.10;;;;;;4347837;32;20092;-40
2021/04/02 10:37:15;;;;;;;9.07;1.27;;;19.30;27.00;;;;;;4360240;32;20081;-40
2021/04/02 10:39:41;;;;;;;33.30;4.05;;;19.10;27.50;;;;;;4360952;32;20085;-39
2021/04/02 10:42:08;;;;;;;6.07;1.30;;;19.10;27.80;;;;;;4360838;32;20091;-40
2021/04/02 10:44:35;;;;;;;10.32;1.25;;;19.00;27.70;;;;;;4358845;32;20167;-40
2021/04/02 10:47:01;;;;;;;33.63;3.47;;;18.90;27.70;;;;;;4360085;32;20069;-41
2021/04/02 10:49:27;;;;;;;53.25;3.22;;;18.70;27.80;;;;;;4342806;33;20066;-39
2021/04/02 10:51:54;;;;;;;37.28;2.87;;;18.60;28.20;;;;;;4330940;33;20183;-40
2021/04/02 10:54:20;;;;;;;13.52;2.12;;;18.60;28.40;;;;;;4343090;33;20082;-40
2021/04/02 10:56:47;;;;;;;31.08;3.80;;;18.60;28.50;;;;;;4342855;33;20067;-40
2021/04/02 10:59:13;;;;;;;27.52;2.40;;;18.70;28.40;;;;;;4343520;33;20065;-38
2021/04/02 11:01:40;;;;;;;25.58;1.98;;;18.80;28.20;;;;;;4330863;33;20606;-39
2021/04/02 11:04:06;;;;;;;23.48;1.73;;;18.70;27.90;;;;;;4330276;33;20152;-39
2021/04/02 11:06:33;;;;;;;48.50;4.22;;;18.50;27.80;;;;;;4342910;33;20075;-39
2021/04/02 11:08:59;;;;;;;33.85;2.50;;;18.30;28.40;;;;;;4330461;33;20070;-39
2021/04/02 11:11:26;;;;;;;10.63;1.98;;;18.30;28.40;;;;;;4342536;33;20531;-40
2021/04/02 11:13:52;;;;;;;31.42;3.95;;;18.20;28.40;;;;;;4342469;33;20101;-39
2021/04/02 11:16:19;;;;;;;22.08;2.17;;;18.10;28.60;;;;;;4342655;33;20473;-39
2021/04/02 11:18:46;;;;;;;30.60;3.97;;;18.00;28.70;;;;;;4342773;33;20140;-38
2021/04/02 11:21:13;;;;;;;25.95;2.53;;;18.10;28.60;;;;;;4356721;32;20074;-39
2021/04/02 11:23:40;;;;;;;28.77;3.05;;;18.00;28.50;;;;;;4360208;32;20078;-41
2021/04/02 11:26:07;;;;;;;34.78;3.37;;;17.90;28.60;;;;;;4360647;32;20615;-39
2021/04/02 11:28:33;;;;;;;23.62;3.00;;;17.90;28.80;;;;;;4360382;32;20512;-40
2021/04/02 11:31:00;;;;;;;32.85;5.03;;;17.80;28.90;;;;;;4360571;32;20061;-41
2021/04/02 11:33:26;;;;;;;26.48;2.53;;;17.70;28.80;;;;;;4360464;32;20067;-41
2021/04/02 11:35:53;;;;;;;61.30;6.28;;;17.60;28.90;;;;;;4350756;32;20067;-40
2021/04/02 11:38:19;;;;;;;47.85;4.28;;;17.60;29.10;;;;;;4344687;33;20096;-40
2021/04/02 11:40:46;;;;;;;39.65;4.20;;;17.60;29.10;;;;;;4343345;33;20496;-37
2021/04/02 11:43:12;;;;;;;59.53;5.78;;;17.50;29.20;;;;;;4327190;33;20074;-40
2021/04/02 11:45:39;;;;;;;57.75;5.00;;;17.50;29.40;;;;;;4327207;33;20468;-40
2021/04/02 11:48:06;;;;;;;38.25;3.40;;;17.40;29.40;;;;;;4327294;33;20535;-38
2021/04/02 11:50:32;;;;;;;64.93;7.30;;;17.30;29.40;;;;;;4315038;33;20145;-39
2021/04/02 11:52:59;;;;;;;41.30;3.17;;;17.10;29.70;;;;;;4327251;33;20074;-39
2021/04/02 11:55:25;;;;;;;55.97;5.28;;;16.90;29.90;;;;;;4327139;33;20133;-40
2021/04/02 11:57:52;;;;;;;49.15;4.55;;;16.80;30.00;;;;;;4314985;33;20563;-38
2021/04/02 12:00:19;;;;;;;42.30;4.22;;;16.90;30.30;;;;;;4327420;33;20128;-39
2021/04/02 12:02:46;;;;;;;62.45;5.40;;;16.90;30.00;;;;;;4327252;33;20433;-41
2021/04/02 12:05:14;;;;;;;51.60;4.80;;;17.00;30.00;;;;;;4327445;33;20160;-41
2021/04/02 12:07:41;;;;;;;39.03;4.00;;;17.00;30.00;;;;;;4326727;33;20539;-40
2021/04/02 12:10:08;;;;;;;52.35;4.15;;;17.30;30.00;;;;;;4327176;33;20773;-40
2021/04/02 12:12:35;;;;;;;53.00;6.12;;;17.60;29.30;;;;;;4326874;33;20103;-40
2021/04/02 12:15:03;;;;;;;19.85;2.05;;;17.90;29.50;;;;;;4340812;33;20448;-40
2021/04/02 12:17:30;;;;;;;33.47;5.53;;;18.10;28.60;;;;;;4326589;33;20163;-41
2021/04/02 12:19:57;;;;;;;63.95;5.20;;;18.40;28.00;;;;;;4314568;33;20589;-41
2021/04/02 12:22:23;;;;;;;39.33;2.75;;;18.60;27.80;;;;;;4326631;33;20083;-41
2021/04/02 12:24:50;;;;;;;63.25;5.95;;;18.70;27.60;;;;;;4326700;33;20059;-40
2021/04/02 12:27:16;;;;;;;71.60;5.30;;;18.90;27.20;;;;;;4326887;33;20527;-42
2021/04/02 12:29:42;;;;;;;56.88;5.35;;;19.00;27.20;;;;;;4327068;33;20098;-42
2021/04/02 12:32:09;;;;;;;53.60;5.93;;;19.00;27.20;;;;;;4326841;33;20094;-40
2021/04/02 12:34:35;;;;;;;67.90;6.95;;;19.10;27.00;;;;;;4327633;33;20060;-40
2021/04/02 12:37:02;;;;;;;38.40;4.10;;;19.10;26.80;;;;;;4329115;33;20062;-41
2021/04/02 12:39:29;;;;;;;53.72;5.60;;;19.10;26.70;;;;;;4341630;33;20078;-42
2021/04/02 12:41:55;;;;;;;42.85;3.87;;;19.00;26.60;;;;;;4341480;33;20161;-40
2021/04/02 12:44:22;;;;;;;47.78;3.87;;;19.00;26.70;;;;;;4328742;33;20095;-41
2021/04/02 12:46:48;;;;;;;68.68;5.97;;;19.00;26.70;;;;;;4341467;33;20124;-42
2021/04/02 12:49:15;;;;;;;71.07;6.25;;;18.90;26.60;;;;;;4327431;33;20079;-41
2021/04/02 12:51:41;;;;;;;40.22;3.90;;;18.90;26.50;;;;;;4343375;32;20090;-41